Columbus, Ohio
Traffic Map
Current Weather Conditions
Columbus, Ohio
Scattered Clouds
Scattered Clouds
23°
Feels Like: 23°
Wind Chill: 23° Ceiling: Unl
Heat Index: 23° Visibility: 10mi
Dew Point: 17° Wind: 5mph
Humidity: 68% Direction: 150° (SSE)
Pressure: 30.01in Gusts: 0mph
Raw Report DataKCMH 070251Z 15004KT 10SM SCT250 23/17 A3001 RMK AO2 SLP157 T02280167 53004
Traffic Incident Summary
Active as of:
Severity:
Category:
InformationThere was an issue retrieving the traffic information for this location. Please try a different location or try again shortly.
Advertisements
Track Severe Weather on mobile